createdAt,value
2023-03-23T02:00:15.554Z,27.13
2023-03-23T02:04:15.591Z,29.43
2023-03-23T02:08:15.658Z,29.32
2023-03-23T02:12:15.648Z,28.98
2023-03-23T02:16:15.698Z,25.31
2023-03-23T02:20:15.755Z,30.15
2023-03-23T02:24:15.861Z,30.53
2023-03-23T02:28:15.868Z,29.32
2023-03-23T02:32:15.864Z,30.68
2023-03-23T02:36:15.857Z,29.97
2023-03-23T02:40:15.848Z,30.19
2023-03-23T02:44:15.833Z,27.95
2023-03-23T02:48:15.816Z,27.93
2023-03-23T02:52:15.799Z,28.30
2023-03-23T02:56:15.785Z,28.49
2023-03-23T03:00:15.960Z,27.05
2023-03-23T03:04:15.748Z,28.50
2023-03-23T03:08:15.736Z,28.00
2023-03-23T03:12:15.696Z,27.96
2023-03-23T03:16:15.663Z,27.27
2023-03-23T03:20:15.641Z,27.52
2023-03-23T03:24:15.618Z,29.04
2023-03-23T03:28:15.612Z,28.53
2023-03-23T03:32:15.983Z,28.09
2023-03-23T03:36:15.637Z,27.84
2023-03-23T03:40:15.853Z,26.79
2023-03-23T03:44:15.935Z,28.57
2023-03-23T03:48:16.498Z,27.31
2023-03-23T03:52:16.297Z,29.54
2023-03-23T03:56:16.446Z,27.92
2023-03-23T04:00:16.639Z,26.11
2023-03-23T04:04:16.798Z,28.70
2023-03-23T04:08:16.916Z,29.27
2023-03-23T04:12:17.059Z,28.61
2023-03-23T04:16:17.176Z,27.33
2023-03-23T04:20:17.280Z,26.86
2023-03-23T04:24:23.242Z,29.16
2023-03-23T04:28:18.309Z,28.48
2023-03-23T04:32:17.220Z,32.61
2023-03-23T04:36:17.237Z,28.39
2023-03-23T04:40:17.230Z,26.66
2023-03-23T04:44:17.152Z,28.91
2023-03-23T04:48:17.139Z,30.85
2023-03-23T04:52:17.090Z,27.25
2023-03-23T04:56:17.051Z,27.09
2023-03-23T05:00:17.019Z,26.88
2023-03-23T05:04:16.988Z,27.43
2023-03-23T05:08:16.954Z,29.40
2023-03-23T05:12:16.915Z,26.02
2023-03-23T05:16:17.031Z,30.88
2023-03-23T05:20:16.875Z,29.06
2023-03-23T05:24:16.868Z,27.93
2023-03-23T05:28:16.864Z,29.41
2023-03-23T05:32:16.863Z,31.62
2023-03-23T05:36:16.841Z,28.94
2023-03-23T05:40:16.830Z,26.78
2023-03-23T05:44:16.801Z,31.15
2023-03-23T05:48:16.795Z,28.44
2023-03-23T05:52:16.806Z,26.66
2023-03-23T05:56:16.849Z,27.28
2023-03-23T06:00:16.767Z,28.23
2023-03-23T06:04:16.772Z,29.97
2023-03-23T06:08:16.805Z,28.03
2023-03-23T06:12:16.828Z,25.92
2023-03-23T06:16:16.856Z,31.12
2023-03-23T06:20:16.884Z,30.07
2023-03-23T06:24:16.915Z,29.69
2023-03-23T06:28:16.966Z,25.36
2023-03-23T06:32:17.037Z,39.68
2023-03-23T06:36:17.055Z,62.54
2023-03-23T06:40:17.143Z,92.59
2023-03-23T06:44:17.112Z,116.82
2023-03-23T06:48:17.079Z,145.03
2023-03-23T06:52:17.025Z,170.47
2023-03-23T06:56:16.989Z,216.86
2023-03-23T07:00:16.930Z,238.66
2023-03-23T07:04:16.880Z,250.58
2023-03-23T07:08:16.832Z,249.09
2023-03-23T07:12:16.790Z,247.72
2023-03-23T07:16:18.508Z,250.00
2023-03-23T07:20:16.836Z,249.39
2023-03-23T07:24:16.913Z,248.69
2023-03-23T07:28:17.037Z,182.58
2023-03-23T07:32:17.181Z,120.66
2023-03-23T07:36:17.365Z,90.19
2023-03-23T07:40:17.395Z,31.49
2023-03-23T07:44:17.432Z,21.88
2023-03-23T07:48:21.445Z,55.47
2023-03-23T07:52:17.504Z,62.08
2023-03-23T07:56:17.481Z,75.52
2023-03-23T08:00:17.452Z,82.74
2023-03-23T08:04:17.417Z,89.59
2023-03-23T08:08:17.382Z,91.57
2023-03-23T08:12:17.346Z,93.57
2023-03-23T08:16:17.294Z,67.77
2023-03-23T08:20:17.293Z,49.42
2023-03-23T08:24:17.233Z,62.28
2023-03-23T08:28:17.200Z,80.80
2023-03-23T08:32:17.186Z,86.95
2023-03-23T08:36:17.170Z,90.22
2023-03-23T08:40:18.286Z,93.34
2023-03-23T08:44:17.011Z,100.89
2023-03-23T08:48:17.185Z,108.01
2023-03-23T08:52:18.017Z,116.05
2023-03-23T08:56:17.504Z,124.24
2023-03-23T09:00:17.768Z,140.05
2023-03-23T09:04:17.726Z,150.85
2023-03-23T09:08:17.837Z,152.22
2023-03-23T09:12:17.980Z,143.29
2023-03-23T09:16:18.166Z,123.16
2023-03-23T09:20:18.200Z,119.71
2023-03-23T09:24:18.299Z,110.27
2023-03-23T09:28:18.395Z,21.48
2023-03-23T09:32:18.529Z,0.00
2023-03-23T09:36:18.675Z,44.81
2023-03-23T09:40:19.116Z,75.84
2023-03-23T09:44:18.879Z,89.23
2023-03-23T09:48:18.954Z,102.19
2023-03-23T09:52:18.905Z,118.00
2023-03-23T09:56:18.913Z,127.62
2023-03-23T10:00:18.799Z,141.38
2023-03-23T10:04:18.718Z,156.00
2023-03-23T10:08:18.688Z,166.59
2023-03-23T10:12:19.146Z,175.07
2023-03-23T10:16:18.539Z,180.47
2023-03-23T10:20:18.473Z,184.65
2023-03-23T10:24:18.412Z,184.83
2023-03-23T10:28:18.355Z,190.88
2023-03-23T10:32:19.059Z,198.02
2023-03-23T10:36:18.258Z,198.16
2023-03-23T10:40:18.123Z,197.30
2023-03-23T10:44:18.054Z,203.36
2023-03-23T10:48:17.964Z,217.92
2023-03-23T10:52:17.894Z,229.06
2023-03-23T10:56:17.820Z,238.41
2023-03-23T11:00:17.742Z,248.58
2023-03-23T11:04:17.649Z,249.32
2023-03-23T11:08:17.642Z,250.00
2023-03-23T11:12:19.398Z,248.36
2023-03-23T11:16:17.462Z,248.87
2023-03-23T11:20:17.398Z,247.95
2023-03-23T11:24:17.334Z,247.13
2023-03-23T11:28:17.269Z,246.02
2023-03-23T11:32:17.193Z,246.28
2023-03-23T11:36:17.297Z,245.65
2023-03-23T11:40:17.415Z,244.54
2023-03-23T11:44:17.536Z,243.72
2023-03-23T11:48:17.676Z,242.91
2023-03-23T11:52:17.848Z,242.16
2023-03-23T11:56:17.985Z,240.80
2023-03-23T12:00:18.141Z,239.74
2023-03-23T12:04:18.331Z,237.44
2023-03-23T12:12:18.692Z,234.83
2023-03-23T12:16:18.896Z,234.93
2023-03-23T12:20:19.074Z,233.99
2023-03-23T12:24:19.268Z,232.00
2023-03-23T12:28:19.538Z,230.38
2023-03-23T12:32:19.696Z,229.61
2023-03-23T12:36:19.951Z,229.67
2023-03-23T12:40:20.136Z,228.15
2023-03-23T12:44:19.864Z,226.75
2023-03-23T12:48:19.815Z,226.08
2023-03-23T12:52:19.757Z,226.35
2023-03-23T12:56:19.708Z,224.28
2023-03-23T13:00:19.666Z,223.51
2023-03-23T13:04:19.612Z,219.62
2023-03-23T13:08:19.578Z,212.80
2023-03-23T13:12:19.519Z,216.57
2023-03-23T13:16:19.474Z,218.43
2023-03-23T13:20:19.427Z,218.69
2023-03-23T13:24:19.373Z,216.61
2023-03-23T13:28:19.327Z,217.11
2023-03-23T13:32:19.281Z,216.74
2023-03-23T13:36:19.397Z,215.31
2023-03-23T13:40:19.587Z,215.88
2023-03-23T13:44:19.789Z,215.41
2023-03-23T13:48:19.988Z,214.29
2023-03-23T13:52:19.934Z,213.75
2023-03-23T13:56:19.893Z,210.96
2023-03-23T14:00:19.862Z,211.80
2023-03-23T14:04:19.832Z,210.65
2023-03-23T14:08:19.809Z,209.89
2023-03-23T14:12:19.785Z,209.14
2023-03-23T14:16:19.784Z,209.27
2023-03-23T14:20:19.696Z,208.20
2023-03-23T14:24:19.667Z,206.08
2023-03-23T14:28:19.730Z,205.43
2023-03-23T14:32:19.600Z,205.00
2023-03-23T14:36:19.583Z,205.07
2023-03-23T14:40:19.554Z,203.52
2023-03-23T14:44:19.671Z,201.91
2023-03-23T14:48:19.794Z,202.82
2023-03-23T14:52:20.005Z,200.93
2023-03-23T14:56:20.051Z,199.93
2023-03-23T15:00:20.185Z,199.97
2023-03-23T15:04:20.399Z,199.66
2023-03-23T15:08:20.740Z,199.50
2023-03-23T15:12:20.605Z,197.74
2023-03-23T15:16:20.731Z,197.44
2023-03-23T15:20:20.866Z,196.73
2023-03-23T15:24:21.072Z,197.07
2023-03-23T15:28:21.246Z,194.94
2023-03-23T15:32:20.980Z,194.97
2023-03-23T15:36:20.935Z,196.31
2023-03-23T15:40:20.879Z,196.68
2023-03-23T15:44:20.840Z,194.36
2023-03-23T15:48:21.030Z,193.78
2023-03-23T15:52:20.975Z,193.03
2023-03-23T15:56:20.928Z,192.03
2023-03-23T16:00:20.954Z,191.95
2023-03-23T16:04:20.828Z,190.94
2023-03-23T16:08:20.778Z,191.21
2023-03-23T16:12:20.724Z,188.35
2023-03-23T16:16:20.818Z,189.65
2023-03-23T16:20:20.648Z,188.84
2023-03-23T16:24:20.585Z,187.27
2023-03-23T16:28:20.739Z,187.24
2023-03-23T16:32:20.698Z,183.79
2023-03-23T16:36:20.697Z,182.47
2023-03-23T16:40:20.631Z,183.85
2023-03-23T16:44:20.548Z,183.24
2023-03-23T16:48:21.275Z,182.56
2023-03-23T16:52:20.494Z,183.12
2023-03-23T16:56:20.786Z,184.53
2023-03-23T17:00:20.455Z,181.44
2023-03-23T17:04:20.419Z,182.61
2023-03-23T17:08:20.571Z,181.75
2023-03-23T17:12:20.677Z,181.59
2023-03-23T17:16:20.580Z,180.76
2023-03-23T17:20:20.789Z,181.73
2023-03-23T17:24:20.533Z,180.22
2023-03-23T17:28:21.103Z,181.69
2023-03-23T17:32:20.489Z,178.89
2023-03-23T17:36:20.563Z,178.75
2023-03-23T17:40:20.456Z,179.97
2023-03-23T17:44:20.422Z,177.67
2023-03-23T17:48:20.465Z,177.89
2023-03-23T17:52:20.649Z,177.41
2023-03-23T17:56:20.846Z,177.18
2023-03-23T18:00:21.028Z,177.37
2023-03-23T18:04:21.220Z,177.48
2023-03-23T18:08:21.417Z,175.77
2023-03-23T18:12:21.808Z,174.12
2023-03-23T18:16:21.814Z,174.29
2023-03-23T18:20:21.960Z,174.66
2023-03-23T18:24:22.164Z,173.78
2023-03-23T18:28:22.344Z,174.82
2023-03-23T18:32:22.537Z,175.98
2023-03-23T18:36:22.726Z,173.69
2023-03-23T18:40:22.933Z,174.08
2023-03-23T18:44:23.162Z,172.45
2023-03-23T18:48:23.822Z,171.39
2023-03-23T18:52:23.525Z,172.06
2023-03-23T18:56:23.715Z,172.01
2023-03-23T19:00:23.944Z,170.25
2023-03-23T19:04:24.144Z,170.78
2023-03-23T19:08:24.312Z,170.72
2023-03-23T19:12:24.525Z,168.94
2023-03-23T19:16:24.707Z,170.46
2023-03-23T19:20:54.860Z,169.52
2023-03-23T19:24:25.777Z,168.85
2023-03-23T19:32:25.722Z,168.27
2023-03-23T19:36:24.773Z,168.12
2023-03-23T19:40:39.592Z,165.59
2023-03-23T19:44:25.823Z,167.08
2023-03-23T19:48:24.795Z,166.97
2023-03-23T19:52:25.065Z,166.38
2023-03-23T19:56:25.464Z,165.17
2023-03-23T20:00:25.184Z,164.97
2023-03-23T20:04:25.812Z,164.08
2023-03-23T20:08:25.445Z,165.59
2023-03-23T20:12:25.586Z,163.95
2023-03-23T20:16:25.714Z,163.28
2023-03-23T20:20:25.861Z,164.25
2023-03-23T20:24:25.883Z,162.91
2023-03-23T20:28:25.985Z,162.69
2023-03-23T20:32:26.291Z,161.62
2023-03-23T20:36:26.318Z,161.26
2023-03-23T20:40:26.398Z,160.82
2023-03-23T20:44:26.465Z,162.28
2023-03-23T20:48:26.572Z,160.36
2023-03-23T20:52:26.685Z,160.03
2023-03-23T20:56:26.872Z,159.80
2023-03-23T21:00:26.972Z,158.80
2023-03-23T21:04:27.846Z,160.59
2023-03-23T21:08:27.282Z,159.27
2023-03-23T21:12:27.498Z,158.22
2023-03-23T21:16:27.524Z,157.45
2023-03-23T21:20:27.600Z,157.07
2023-03-23T21:24:27.766Z,156.73
2023-03-23T21:28:27.863Z,156.64
2023-03-23T21:32:27.979Z,155.26
2023-03-23T21:36:28.023Z,154.39
2023-03-23T21:40:28.051Z,153.62
2023-03-23T21:44:28.068Z,154.80
2023-03-23T21:48:28.388Z,153.55
2023-03-23T21:52:28.180Z,153.94
2023-03-23T21:56:28.257Z,151.96
2023-03-23T22:00:28.248Z,151.75
2023-03-23T22:04:28.314Z,151.24
2023-03-23T22:08:28.259Z,151.80
2023-03-23T22:12:28.255Z,151.10
2023-03-23T22:16:28.380Z,149.78
2023-03-23T22:20:28.284Z,150.36
2023-03-23T22:24:28.312Z,149.20
2023-03-23T22:28:28.408Z,148.70
2023-03-23T22:32:28.426Z,148.79
2023-03-23T22:36:28.364Z,147.88
2023-03-23T22:40:28.364Z,146.27
2023-03-23T22:44:28.930Z,146.56
2023-03-23T22:48:28.321Z,148.50
2023-03-23T22:52:28.418Z,145.09
2023-03-23T22:56:28.313Z,145.85
2023-03-23T23:00:28.277Z,144.27
2023-03-23T23:04:28.329Z,144.64
2023-03-23T23:08:28.322Z,144.13
2023-03-23T23:12:28.311Z,143.68
2023-03-23T23:16:28.382Z,145.00
2023-03-23T23:20:28.528Z,140.49
2023-03-23T23:24:28.762Z,141.60
2023-03-23T23:28:28.993Z,139.43
2023-03-23T23:32:29.318Z,141.18
2023-03-23T23:36:29.496Z,139.42
2023-03-23T23:40:29.636Z,138.27
2023-03-23T23:44:29.644Z,137.86
2023-03-23T23:48:29.653Z,137.82
2023-03-23T23:52:29.650Z,136.17
2023-03-23T23:56:29.707Z,136.43
